Lillis, Kansas
Current Conditions -  °F | °C
As of 4:15 AM on Saturday 20 Dec 2014 (Local Time) from KMYZ Reporting Station
Haze Haze  
Wind Chill: 23°   Ceiling: 900
Heat Index: 32°   Visibility: 5mi
Dew Point: 32°   Wind: 13mph
Humidity: 100%   Direction: 190°S
Pressure: 30.09"   Gusts: NA
Location:  39.7199°N, 96.4404°W
Report Text: KMYZ 201015Z AUTO 19011KT 5SM BR OVC009 00/00 A3009 RMK AO2
Loading
Personal Weather Stations






























Interactive Weather Map New forecast layout! Learn more

10-Day Weather Forecast

Advertisements
Track Severe Weather on mobile